Scio Township, Michigan
Current Conditions -  °F | °C
As of 8:53 PM on Tuesday 21 Oct 2014 (Local Time) from KARB Reporting Station
Overcast Overcast  
Wind Chill: 39°   Ceiling: 2200
Heat Index: 44°   Visibility: 10mi
Dew Point: 34°   Wind: 10mph
Humidity: 68%   Direction: 360°N
Pressure: 30.18"   Gusts: NA
Location:  42.2601°N, 83.8448°W
Report Text: KARB 220053Z AUTO 36009KT 10SM OVC022 07/01 A3018 RMK AO2 SLP225 T00670011
Loading
Personal Weather Stations






























Interactive Weather Map
Tropical Storm Tracking
New forecast layout! Learn more

10-Day Weather Forecast

Advertisements
Track Severe Weather on mobile